Aviation Digital Data Service (ADDS)

Output produced by METARs form (0750 UTC 20 January 2017)
found at http://aviationweather.gov/adds/metars/
 
KGON 200531Z 2006/2106 36004KT P6SM BKN030 
     FM201200 03003KT P6SM SCT025 BKN200 
     FM201500 09004KT P6SM SCT020 BKN200 
     FM201900 14005KT P6SM BKN020 BKN200 
     FM202300 14004KT 6SM BR OVC020 
     FM210400 17004KT 3SM -RA BR OVC010